createdAt,value
2022-11-17T00:01:10.050Z,-3.56
2022-11-17T00:03:39.203Z,-3.57
2022-11-17T00:06:08.806Z,-3.63
2022-11-17T00:08:37.991Z,-3.67
2022-11-17T00:11:07.893Z,-3.68
2022-11-17T00:13:55.341Z,-3.64
2022-11-17T00:16:24.756Z,-3.71
2022-11-17T00:19:12.429Z,-3.75
2022-11-17T00:21:41.565Z,-3.78
2022-11-17T00:24:10.749Z,-3.72
2022-11-17T00:26:59.715Z,-3.67
2022-11-17T00:29:29.786Z,-3.69
2022-11-17T00:32:17.998Z,-3.80
2022-11-17T00:34:47.028Z,-3.95
2022-11-17T00:37:18.307Z,-3.95
2022-11-17T00:39:50.477Z,-4.01
2022-11-17T00:42:19.823Z,-4.02
2022-11-17T00:44:48.928Z,-4.04
2022-11-17T00:47:18.092Z,-4.08
2022-11-17T00:49:47.209Z,-4.12
2022-11-17T00:52:16.367Z,-4.19
2022-11-17T00:54:45.391Z,-4.27
2022-11-17T00:57:14.487Z,-4.36
2022-11-17T00:59:43.430Z,-4.40
2022-11-17T01:02:12.523Z,-4.42
2022-11-17T01:04:41.459Z,-4.41
2022-11-17T01:07:10.657Z,-4.47
2022-11-17T01:09:39.779Z,-4.50
2022-11-17T01:12:09.206Z,-4.46
2022-11-17T01:14:39.362Z,-4.51
2022-11-17T01:17:08.367Z,-4.57
2022-11-17T01:19:37.407Z,-4.64
2022-11-17T01:22:06.806Z,-4.74
2022-11-17T01:24:35.875Z,-4.81
2022-11-17T01:27:07.891Z,-4.76
2022-11-17T01:29:37.847Z,-4.88
2022-11-17T01:32:07.431Z,-5.05
2022-11-17T01:34:36.577Z,-5.12
2022-11-17T01:37:20.966Z,-5.12
2022-11-17T01:39:52.094Z,-5.15
2022-11-17T01:42:26.620Z,-5.28
2022-11-17T01:45:02.015Z,-5.38
2022-11-17T01:47:38.207Z,-5.44
2022-11-17T01:50:22.877Z,-5.52
2022-11-17T01:53:00.656Z,-5.52
2022-11-17T01:55:39.699Z,-5.50
2022-11-17T01:58:16.869Z,-5.51
2022-11-17T02:00:46.538Z,-5.50
2022-11-17T02:03:16.101Z,-5.68
2022-11-17T02:05:58.184Z,-5.79
2022-11-17T02:08:33.362Z,-5.80
2022-11-17T02:11:09.895Z,-5.85
2022-11-17T02:13:42.177Z,-5.93
2022-11-17T02:16:17.707Z,-5.94
2022-11-17T02:18:49.923Z,-5.93
2022-11-17T02:22:22.391Z,-5.95
2022-11-17T02:25:26.721Z,-5.98
2022-11-17T02:28:19.742Z,-6.19
2022-11-17T02:31:19.242Z,-6.18
2022-11-17T02:34:36.883Z,-6.28
2022-11-17T02:37:56.034Z,-6.33
2022-11-17T02:40:41.222Z,-6.38
2022-11-17T02:43:39.584Z,-6.40
2022-11-17T02:46:15.360Z,-6.47
2022-11-17T02:48:56.365Z,-6.56
2022-11-17T02:51:26.848Z,-6.60
2022-11-17T02:53:59.063Z,-6.71
2022-11-17T02:56:28.253Z,-6.79
2022-11-17T02:59:04.223Z,-6.82
2022-11-17T03:02:29.852Z,-6.84
2022-11-17T03:05:26.446Z,-6.90
2022-11-17T03:08:15.038Z,-6.92
2022-11-17T03:11:08.961Z,-6.93
2022-11-17T03:14:23.827Z,-6.98
2022-11-17T03:17:06.972Z,-6.88
2022-11-17T03:19:48.696Z,-6.74
2022-11-17T03:22:34.973Z,-6.77
2022-11-17T03:25:15.950Z,-6.92
2022-11-17T03:27:55.382Z,-7.03
2022-11-17T03:30:26.599Z,-7.08
2022-11-17T03:33:06.254Z,-7.14
2022-11-17T03:35:45.112Z,-7.27
2022-11-17T03:38:22.448Z,-7.38
2022-11-17T03:40:56.523Z,-7.37
2022-11-17T03:43:30.045Z,-7.33
2022-11-17T03:46:10.780Z,-7.41
2022-11-17T03:48:53.843Z,-7.45
2022-11-17T03:51:34.180Z,-7.46
2022-11-17T03:54:03.833Z,-7.43
2022-11-17T03:57:09.666Z,-7.44
2022-11-17T04:00:16.955Z,-7.55
2022-11-17T04:02:49.990Z,-7.57
2022-11-17T04:05:20.042Z,-7.65
2022-11-17T04:07:50.643Z,-7.91
2022-11-17T04:10:26.820Z,-7.99
2022-11-17T04:13:14.730Z,-7.96
2022-11-17T04:16:00.286Z,-7.87
2022-11-17T04:18:29.656Z,-7.86
2022-11-17T04:20:59.389Z,-7.93
2022-11-17T04:23:29.162Z,-8.05
2022-11-17T04:26:17.451Z,-8.18
2022-11-17T04:28:51.898Z,-8.15
2022-11-17T04:31:27.795Z,-8.19
2022-11-17T04:34:06.182Z,-8.16
2022-11-17T04:36:45.459Z,-8.19
2022-11-17T04:39:16.960Z,-8.22
2022-11-17T04:41:55.789Z,-8.33
2022-11-17T04:44:31.150Z,-8.39
2022-11-17T04:47:03.183Z,-8.42
2022-11-17T04:49:33.739Z,-8.52
2022-11-17T04:52:03.966Z,-8.56
2022-11-17T04:54:33.017Z,-8.57
2022-11-17T04:57:02.005Z,-8.52
2022-11-17T04:59:31.042Z,-8.54
2022-11-17T05:02:05.323Z,-8.63
2022-11-17T05:04:53.272Z,-8.58
2022-11-17T05:07:22.687Z,-8.63
2022-11-17T05:09:51.911Z,-8.69
2022-11-17T05:12:40.344Z,-8.75
2022-11-17T05:15:10.093Z,-8.76
2022-11-17T05:17:39.170Z,-8.74
2022-11-17T05:20:09.141Z,-8.72
2022-11-17T05:23:07.199Z,-8.74
2022-11-17T05:25:37.264Z,-8.80
2022-11-17T05:28:06.333Z,-8.94
2022-11-17T05:30:35.378Z,-9.03
2022-11-17T05:33:04.854Z,-8.99
2022-11-17T05:35:33.842Z,-9.04
2022-11-17T05:38:03.008Z,-9.15
2022-11-17T05:40:32.350Z,-9.20
2022-11-17T05:43:01.341Z,-9.23
2022-11-17T05:45:30.364Z,-9.27
2022-11-17T05:47:59.450Z,-9.34
2022-11-17T05:50:28.567Z,-9.37
2022-11-17T05:52:57.624Z,-9.47
2022-11-17T05:55:27.910Z,-9.55
2022-11-17T05:58:03.800Z,-9.81
2022-11-17T06:00:34.958Z,-10.09
2022-11-17T06:03:15.377Z,-10.14
2022-11-17T06:05:45.485Z,-10.15
2022-11-17T06:08:15.794Z,-10.25
2022-11-17T06:10:45.592Z,-10.27
2022-11-17T06:13:14.742Z,-10.21
2022-11-17T06:15:44.072Z,-10.22
2022-11-17T06:18:20.016Z,-10.26
2022-11-17T06:20:53.207Z,-10.32
2022-11-17T06:23:27.008Z,-10.42
2022-11-17T06:25:56.878Z,-10.45
2022-11-17T06:28:28.648Z,-10.59
2022-11-17T06:30:58.795Z,-10.67
2022-11-17T06:33:31.599Z,-10.66
2022-11-17T06:36:08.035Z,-10.70
2022-11-17T06:38:37.915Z,-10.80
2022-11-17T06:41:11.875Z,-10.87
2022-11-17T06:43:41.416Z,-10.87
2022-11-17T06:46:10.661Z,-10.80
2022-11-17T06:48:41.052Z,-10.76
2022-11-17T06:51:10.021Z,-10.72
2022-11-17T06:53:39.203Z,-10.86
2022-11-17T06:56:12.690Z,-10.89
2022-11-17T06:58:42.752Z,-10.92
2022-11-17T07:01:15.526Z,-10.93
2022-11-17T07:03:45.134Z,-10.89
2022-11-17T07:06:14.765Z,-10.87
2022-11-17T07:08:44.320Z,-10.95
2022-11-17T07:11:17.896Z,-11.09
2022-11-17T07:13:47.181Z,-11.19
2022-11-17T07:16:23.744Z,-11.18
2022-11-17T07:18:54.995Z,-11.13
2022-11-17T07:21:24.029Z,-11.03
2022-11-17T07:23:53.163Z,-11.00
2022-11-17T07:26:22.341Z,-10.98
2022-11-17T07:28:51.633Z,-11.00
2022-11-17T07:31:21.382Z,-11.05
2022-11-17T07:33:51.479Z,-11.09
2022-11-17T07:36:20.716Z,-11.10
2022-11-17T07:38:49.829Z,-11.12
2022-11-17T07:41:18.896Z,-11.08
2022-11-17T07:43:48.056Z,-11.06
2022-11-17T07:46:17.712Z,-11.06
2022-11-17T07:48:46.969Z,-11.11
2022-11-17T07:51:16.938Z,-11.16
2022-11-17T07:53:46.282Z,-11.26
2022-11-17T07:56:15.714Z,-11.26
2022-11-17T07:58:44.812Z,-11.42
2022-11-17T08:01:19.680Z,-11.70
2022-11-17T08:03:48.746Z,-11.87
2022-11-17T08:06:18.125Z,-11.99
2022-11-17T08:08:49.549Z,-12.09
2022-11-17T08:11:20.380Z,-12.26
2022-11-17T08:13:51.253Z,-12.34
2022-11-17T08:16:20.644Z,-12.34
2022-11-17T08:18:52.600Z,-12.40
2022-11-17T08:21:22.178Z,-12.45
2022-11-17T08:23:56.223Z,-12.52
2022-11-17T08:26:26.659Z,-12.49
2022-11-17T08:28:58.766Z,-12.55
2022-11-17T08:31:29.227Z,-12.61
2022-11-17T08:33:58.351Z,-12.65
2022-11-17T08:36:27.360Z,-12.75
2022-11-17T08:38:56.455Z,-12.81
2022-11-17T08:41:26.898Z,-12.79
2022-11-17T08:43:55.999Z,-12.83
2022-11-17T08:46:26.848Z,-12.96
2022-11-17T08:48:57.362Z,-13.03
2022-11-17T08:51:26.637Z,-12.97
2022-11-17T08:53:57.044Z,-12.97
2022-11-17T08:56:26.043Z,-13.07
2022-11-17T08:58:55.143Z,-13.24
2022-11-17T09:01:24.409Z,-13.34
2022-11-17T09:03:53.498Z,-13.31
2022-11-17T09:06:22.795Z,-13.31
2022-11-17T09:08:55.489Z,-13.41
2022-11-17T09:11:25.183Z,-13.55
2022-11-17T09:13:54.527Z,-13.67
2022-11-17T09:16:25.150Z,-13.72
2022-11-17T09:18:59.529Z,-13.75
2022-11-17T09:21:28.972Z,-13.91
2022-11-17T09:23:58.260Z,-13.98
2022-11-17T09:26:27.373Z,-14.12
2022-11-17T09:28:56.529Z,-14.28
2022-11-17T09:31:26.013Z,-14.28
2022-11-17T09:33:56.016Z,-14.32
2022-11-17T09:36:27.512Z,-14.28
2022-11-17T09:38:56.708Z,-14.17
2022-11-17T09:41:40.707Z,-14.18
2022-11-17T09:44:29.869Z,-14.21
2022-11-17T09:47:43.930Z,-14.25
2022-11-17T09:50:32.611Z,-14.26
2022-11-17T09:53:59.950Z,-14.23
2022-11-17T09:56:29.773Z,-14.26
2022-11-17T09:59:13.232Z,-14.30
2022-11-17T10:01:42.506Z,-14.61
2022-11-17T10:04:18.001Z,-14.78
2022-11-17T10:06:51.944Z,-14.91
2022-11-17T10:09:25.924Z,-15.06
2022-11-17T10:12:08.968Z,-15.09
2022-11-17T10:14:44.329Z,-15.21
2022-11-17T10:17:14.691Z,-15.22
2022-11-17T10:19:46.260Z,-15.16
2022-11-17T10:22:39.954Z,-15.12
2022-11-17T10:25:40.080Z,-15.16
2022-11-17T10:28:25.089Z,-15.41
2022-11-17T10:31:01.865Z,-15.47
2022-11-17T10:33:47.672Z,-15.52
2022-11-17T10:36:30.643Z,-15.71
2022-11-17T10:39:02.616Z,-15.90
2022-11-17T10:41:48.750Z,-15.83
2022-11-17T10:44:31.775Z,-15.78
2022-11-17T10:47:06.337Z,-15.79
2022-11-17T10:49:40.911Z,-15.76
2022-11-17T10:52:20.995Z,-15.73
2022-11-17T10:54:50.860Z,-15.70
2022-11-17T10:57:27.992Z,-15.79
2022-11-17T10:59:58.772Z,-15.86
2022-11-17T11:02:40.511Z,-15.81
2022-11-17T11:05:15.640Z,-15.72
2022-11-17T11:07:46.576Z,-15.81
2022-11-17T11:10:33.330Z,-15.94
2022-11-17T11:13:29.708Z,-15.91
2022-11-17T11:15:58.785Z,-15.93
2022-11-17T11:18:32.038Z,-16.02
2022-11-17T11:21:54.799Z,-16.20
2022-11-17T11:24:49.308Z,-16.22
2022-11-17T11:27:47.899Z,-16.14
2022-11-17T11:30:21.518Z,-15.93
2022-11-17T11:33:28.647Z,-15.87
2022-11-17T11:36:34.554Z,-16.12
2022-11-17T11:39:56.895Z,-16.32
2022-11-17T11:43:06.408Z,-16.35
2022-11-17T11:46:13.944Z,-16.35
2022-11-17T11:48:43.476Z,-16.46
2022-11-17T11:51:27.085Z,-16.60
2022-11-17T11:54:29.889Z,-16.61
2022-11-17T11:57:00.196Z,-16.60
2022-11-17T11:59:43.596Z,-16.62
2022-11-17T12:02:51.465Z,-16.69
2022-11-17T12:05:29.042Z,-16.75
2022-11-17T12:08:27.590Z,-16.78
2022-11-17T12:11:36.226Z,-16.86
2022-11-17T12:14:09.421Z,-16.96
2022-11-17T12:16:41.219Z,-17.01
2022-11-17T12:19:52.497Z,-17.05
2022-11-17T12:22:35.902Z,-17.05
2022-11-17T12:25:23.275Z,-17.04
2022-11-17T12:27:54.727Z,-17.10
2022-11-17T12:30:35.825Z,-17.15
2022-11-17T12:33:10.152Z,-17.25
2022-11-17T12:35:41.873Z,-17.29
2022-11-17T12:38:17.469Z,-17.29
2022-11-17T12:40:48.573Z,-17.37
2022-11-17T12:43:17.577Z,-17.48
2022-11-17T12:46:00.381Z,-17.70
2022-11-17T12:48:40.135Z,-17.91
2022-11-17T12:51:47.749Z,-17.90
2022-11-17T12:55:14.184Z,-17.87
2022-11-17T12:57:48.377Z,-17.91
2022-11-17T13:00:24.984Z,-17.92
2022-11-17T13:03:23.721Z,-18.02
2022-11-17T13:06:34.827Z,-18.06
2022-11-17T13:09:13.603Z,-17.98
2022-11-17T13:11:45.173Z,-17.96
2022-11-17T13:14:19.044Z,-17.99
2022-11-17T13:16:53.085Z,-18.08
2022-11-17T13:19:48.436Z,-18.17
2022-11-17T13:22:20.177Z,-18.16
2022-11-17T13:24:53.249Z,-18.20
2022-11-17T13:27:32.783Z,-18.24
2022-11-17T13:30:34.194Z,-18.27
2022-11-17T13:33:05.402Z,-18.35
2022-11-17T13:35:37.441Z,-18.44
2022-11-17T13:38:25.041Z,-18.59
2022-11-17T13:40:55.221Z,-18.68
2022-11-17T13:43:27.847Z,-18.75
2022-11-17T13:45:57.621Z,-18.82
2022-11-17T13:48:53.611Z,-18.88
2022-11-17T13:51:31.540Z,-18.90
2022-11-17T13:54:17.717Z,-18.83
2022-11-17T13:56:49.573Z,-18.80
2022-11-17T13:59:31.543Z,-18.81
2022-11-17T14:02:21.761Z,-18.87
2022-11-17T14:05:19.356Z,-18.78
2022-11-17T14:07:49.085Z,-18.73
2022-11-17T14:10:24.127Z,-18.73
2022-11-17T14:13:31.476Z,-18.73
2022-11-17T14:16:02.218Z,-18.74
2022-11-17T14:18:39.034Z,-18.92
2022-11-17T14:21:20.033Z,-19.05
2022-11-17T14:23:49.211Z,-19.05
2022-11-17T14:26:25.623Z,-19.03
2022-11-17T14:28:57.821Z,-19.11
2022-11-17T14:31:27.659Z,-19.29
2022-11-17T14:33:57.166Z,-19.34
2022-11-17T14:36:26.310Z,-19.35
2022-11-17T14:38:55.901Z,-19.32
2022-11-17T14:41:25.054Z,-19.30
2022-11-17T14:43:54.174Z,-19.34
2022-11-17T14:46:27.637Z,-19.45
2022-11-17T14:48:57.143Z,-19.47
2022-11-17T14:51:26.694Z,-19.58
2022-11-17T14:53:55.840Z,-19.64
2022-11-17T14:56:26.480Z,-19.73
2022-11-17T14:59:01.116Z,-19.67
2022-11-17T15:01:39.603Z,-19.57
2022-11-17T15:04:34.555Z,-19.56
2022-11-17T15:06:58.257Z,-19.61
2022-11-17T15:09:28.514Z,-19.60
2022-11-17T15:11:58.702Z,-19.57
2022-11-17T15:14:27.972Z,-19.54
2022-11-17T15:16:57.286Z,-19.54
2022-11-17T15:19:26.187Z,-19.49
2022-11-17T15:21:55.185Z,-19.43
2022-11-17T15:24:24.466Z,-19.46
2022-11-17T15:26:53.849Z,-19.54
2022-11-17T15:29:22.865Z,-19.65
2022-11-17T15:31:52.340Z,-19.76
2022-11-17T15:34:21.587Z,-19.77
2022-11-17T15:36:51.361Z,-19.81
2022-11-17T15:39:22.043Z,-19.95
2022-11-17T15:42:12.423Z,-19.95
2022-11-17T15:44:41.718Z,-19.97
2022-11-17T15:47:10.869Z,-19.91
2022-11-17T15:49:39.888Z,-19.81
2022-11-17T15:52:08.926Z,-19.78
2022-11-17T15:54:37.920Z,-19.75
2022-11-17T15:57:07.077Z,-19.76
2022-11-17T15:59:36.275Z,-19.75
2022-11-17T16:02:11.271Z,-19.58
2022-11-17T16:04:40.532Z,-19.47
2022-11-17T16:07:09.758Z,-19.41
2022-11-17T16:09:38.930Z,-19.37
2022-11-17T16:12:08.358Z,-19.31
2022-11-17T16:14:37.496Z,-19.22
2022-11-17T16:17:06.740Z,-19.21
2022-11-17T16:19:36.074Z,-19.19
2022-11-17T16:22:05.223Z,-19.11
2022-11-17T16:24:34.217Z,-19.10
2022-11-17T16:27:03.609Z,-19.09
2022-11-17T16:29:32.741Z,-19.06
2022-11-17T16:32:01.865Z,-19.01
2022-11-17T16:34:31.133Z,-19.06
2022-11-17T16:37:00.233Z,-19.08
2022-11-17T16:39:29.282Z,-19.03
2022-11-17T16:42:00.176Z,-18.97
2022-11-17T16:44:29.328Z,-18.87
2022-11-17T16:46:58.691Z,-18.81
2022-11-17T16:49:28.022Z,-18.74
2022-11-17T16:51:58.002Z,-18.71
2022-11-17T16:54:27.268Z,-18.70
2022-11-17T16:56:56.647Z,-18.61
2022-11-17T16:59:25.840Z,-18.53
2022-11-17T17:01:54.826Z,-18.42
2022-11-17T17:04:23.962Z,-18.35
2022-11-17T17:06:53.075Z,-18.26
2022-11-17T17:09:27.616Z,-18.25
2022-11-17T17:11:57.635Z,-18.26
2022-11-17T17:14:26.723Z,-18.14
2022-11-17T17:16:55.826Z,-18.03
2022-11-17T17:19:25.287Z,-17.94
2022-11-17T17:21:54.604Z,-17.80
2022-11-17T17:24:23.658Z,-17.65
2022-11-17T17:26:52.703Z,-17.56
2022-11-17T17:29:22.346Z,-17.49
2022-11-17T17:31:51.384Z,-17.42
2022-11-17T17:34:20.713Z,-17.35
2022-11-17T17:36:50.076Z,-17.26
2022-11-17T17:39:19.328Z,-17.15
2022-11-17T17:41:48.474Z,-17.09
2022-11-17T17:44:20.786Z,-17.03
2022-11-17T17:46:50.402Z,-16.95
2022-11-17T17:49:20.173Z,-16.89
2022-11-17T17:51:49.851Z,-16.83
2022-11-17T17:54:25.049Z,-16.73
2022-11-17T17:56:54.274Z,-16.64
2022-11-17T17:59:23.271Z,-16.56
2022-11-17T18:01:52.594Z,-16.51
2022-11-17T18:04:22.180Z,-16.46
2022-11-17T18:06:52.311Z,-16.38
2022-11-17T18:09:21.436Z,-16.29
2022-11-17T18:11:51.982Z,-16.20
2022-11-17T18:14:25.237Z,-16.14
2022-11-17T18:16:55.255Z,-16.08
2022-11-17T18:19:29.711Z,-16.07
2022-11-17T18:22:02.153Z,-16.06
2022-11-17T18:24:31.344Z,-16.00
2022-11-17T18:27:01.370Z,-15.98
2022-11-17T18:29:30.396Z,-15.91
2022-11-17T18:31:59.404Z,-15.86
2022-11-17T18:34:28.681Z,-15.83
2022-11-17T18:36:58.268Z,-15.82
2022-11-17T18:39:29.420Z,-15.78
2022-11-17T18:41:58.350Z,-15.72
2022-11-17T18:44:27.647Z,-15.63
2022-11-17T18:47:02.321Z,-15.58
2022-11-17T18:49:32.907Z,-15.52
2022-11-17T18:52:01.899Z,-15.45
2022-11-17T18:54:31.108Z,-15.36
2022-11-17T18:57:01.250Z,-15.29
2022-11-17T18:59:30.403Z,-15.22
2022-11-17T19:01:59.390Z,-15.18
2022-11-17T19:04:29.618Z,-15.11
2022-11-17T19:06:58.853Z,-15.01
2022-11-17T19:09:28.257Z,-14.88
2022-11-17T19:11:57.348Z,-14.77
2022-11-17T19:14:26.537Z,-14.70
2022-11-17T19:16:56.490Z,-14.62
2022-11-17T19:19:25.596Z,-14.52
2022-11-17T19:21:54.852Z,-14.40
2022-11-17T19:24:23.980Z,-14.26
2022-11-17T19:26:53.349Z,-14.12
2022-11-17T19:29:22.829Z,-13.95
2022-11-17T19:31:53.745Z,-13.82
2022-11-17T19:34:22.841Z,-13.71
2022-11-17T19:36:51.914Z,-13.57
2022-11-17T19:39:21.177Z,-13.45
2022-11-17T19:41:50.158Z,-13.32
2022-11-17T19:44:19.239Z,-13.20
2022-11-17T19:46:48.619Z,-13.06
2022-11-17T19:49:18.022Z,-12.90
2022-11-17T19:51:47.381Z,-12.77
2022-11-17T19:54:16.594Z,-12.63
2022-11-17T19:56:45.824Z,-12.53
2022-11-17T19:59:16.660Z,-12.43
2022-11-17T20:01:47.082Z,-12.32
2022-11-17T20:04:16.579Z,-12.15
2022-11-17T20:06:45.810Z,-11.98
2022-11-17T20:09:16.020Z,-11.80
2022-11-17T20:11:45.240Z,-11.64
2022-11-17T20:14:15.603Z,-11.49
2022-11-17T20:16:44.826Z,-11.35
2022-11-17T20:19:15.115Z,-11.24
2022-11-17T20:21:44.631Z,-11.14
2022-11-17T20:24:14.029Z,-11.06
2022-11-17T20:26:45.357Z,-10.99
2022-11-17T20:29:14.573Z,-10.81
2022-11-17T20:31:43.847Z,-10.68
2022-11-17T20:34:14.214Z,-10.59
2022-11-17T20:36:43.297Z,-10.46
2022-11-17T20:39:12.475Z,-10.29
2022-11-17T20:41:41.551Z,-10.13
2022-11-17T20:44:32.255Z,-10.01
2022-11-17T20:47:01.512Z,-9.84
2022-11-17T20:49:31.621Z,-9.69
2022-11-17T20:52:01.023Z,-9.58
2022-11-17T20:54:30.138Z,-9.44
2022-11-17T20:56:59.229Z,-9.29
2022-11-17T20:59:28.214Z,-9.16
2022-11-17T21:01:57.538Z,-9.03
2022-11-17T21:04:26.521Z,-8.90
2022-11-17T21:06:55.694Z,-8.81
2022-11-17T21:09:24.796Z,-8.70
2022-11-17T21:11:59.676Z,-8.61
2022-11-17T21:14:30.574Z,-8.51
2022-11-17T21:17:01.512Z,-8.41
2022-11-17T21:19:35.264Z,-8.29
2022-11-17T21:22:06.825Z,-8.21
2022-11-17T21:24:35.929Z,-8.12
2022-11-17T21:27:05.015Z,-8.04
2022-11-17T21:29:34.066Z,-7.97
2022-11-17T21:32:03.410Z,-7.91
2022-11-17T21:34:33.624Z,-7.82
2022-11-17T21:37:02.683Z,-7.74
2022-11-17T21:39:32.209Z,-7.70
2022-11-17T21:42:01.450Z,-7.64
2022-11-17T21:44:30.478Z,-7.57
2022-11-17T21:46:59.790Z,-7.50
2022-11-17T21:49:28.952Z,-7.49
2022-11-17T21:51:58.147Z,-7.45
2022-11-17T21:54:27.462Z,-7.42
2022-11-17T21:56:56.859Z,-7.38
2022-11-17T21:59:26.567Z,-7.31
2022-11-17T22:01:56.029Z,-7.26
2022-11-17T22:04:25.198Z,-7.23
2022-11-17T22:06:54.284Z,-7.18
2022-11-17T22:09:23.517Z,-7.14
2022-11-17T22:11:52.972Z,-7.10
2022-11-17T22:14:22.740Z,-7.10
2022-11-17T22:16:57.474Z,-7.07
2022-11-17T22:19:30.664Z,-7.02
2022-11-17T22:21:59.978Z,-7.00
2022-11-17T22:24:29.177Z,-6.99
2022-11-17T22:26:58.797Z,-7.00
2022-11-17T22:29:28.154Z,-7.01
2022-11-17T22:31:57.653Z,-7.01
2022-11-17T22:34:26.589Z,-6.98
2022-11-17T22:36:55.870Z,-6.98
2022-11-17T22:39:25.162Z,-6.98
2022-11-17T22:41:54.338Z,-6.96
2022-11-17T22:44:24.005Z,-6.95
2022-11-17T22:46:53.254Z,-6.93
2022-11-17T22:49:22.314Z,-6.94
2022-11-17T22:52:09.993Z,-6.94
2022-11-17T22:54:39.388Z,-6.94
2022-11-17T22:57:08.366Z,-6.93
2022-11-17T22:59:37.684Z,-6.92
2022-11-17T23:02:07.060Z,-6.86
2022-11-17T23:04:36.187Z,-6.85
2022-11-17T23:07:05.373Z,-6.88
2022-11-17T23:09:34.632Z,-6.88
2022-11-17T23:12:03.688Z,-6.84
2022-11-17T23:14:32.756Z,-6.84
2022-11-17T23:17:01.782Z,-6.87
2022-11-17T23:19:30.834Z,-6.88
2022-11-17T23:21:59.885Z,-6.87
2022-11-17T23:24:28.883Z,-6.89
2022-11-17T23:26:57.993Z,-6.95
2022-11-17T23:29:27.024Z,-6.94
2022-11-17T23:31:56.647Z,-6.97
2022-11-17T23:34:28.906Z,-6.98
2022-11-17T23:37:03.388Z,-6.99
2022-11-17T23:39:34.570Z,-6.98
2022-11-17T23:42:03.797Z,-6.98
2022-11-17T23:44:33.122Z,-7.00
2022-11-17T23:47:02.362Z,-7.04
2022-11-17T23:49:31.625Z,-7.03
2022-11-17T23:52:00.678Z,-7.07
2022-11-17T23:54:29.600Z,-7.13
2022-11-17T23:56:58.694Z,-7.15
2022-11-17T23:59:27.954Z,-7.15
